Clute, TX (77531)

11:00 PM CST on November 21, 2014 (GMT -0600)
Brazosport College | Change Station
CLOSE
Current Station
Personal Weather Station
Location: Lake Jackson, TX
Elevation: 33 ft
Nearby Weather Stations

Elev 33 ft 29.04 °N, 95.41 °W | Updated 18 seconds ago

Mostly Cloudy
Mostly Cloudy
64.1 °F
Feels Like 64.1 °F
N
1.0
Wind Variable Wind from North
Gusts 1.0 mph

Today
High -- | Low -- °F
--% Chance of Precip.
Yesterday
High -- | Low -- °F
Precip. -- in
6:49 AM 5:24 PM
Waning Crescent, 0% visible
Pressure 30.14 in
Visibility 10.0 miles
Clouds Few 4500 ft
Dew Point 62 °F
Humidity 93%
Rainfall 0.38 in
Snow Depth Not available.
UV 0.0 out of 12
Pollen 1.20 out of 12
Air Quality Not available.
Flu Activity Not available.
METAR KLBX 220453Z AUTO 08005KT 10SM FEW045 17/17 A3014 RMK AO2 SLP205 T01670167

More Conditions Fewer Conditions

Pressure 30.14 in
Visibility 10.0 miles
Clouds Few 4500 ft
Dew Point 62 °F
Humidity 93%
Rainfall 0.38 in
Snow Depth Not available.
UV 0.0 out of 12
Pollen 1.20 out of 12
Air Quality Not available.
Flu Activity Not available.
METAR KLBX 220453Z AUTO 08005KT 10SM FEW045 17/17 A3014 RMK AO2 SLP205 T01670167

More Conditions Fewer Conditions

10-Day Weather Forecast

Almanac

Astronomy

Nov. 21, 2014 Rise Set
Actual Time
Civil Twilight
Nautical Twilight
Astronomical Twilight
Moon
Length of Visible Light
Length of Day
Tomorrow will be .
, % of the Moon is Illuminated

Today's Extremes

State Highs State Lows

Community

WunderPhotos

Upload Photos

1,772,774 photos uploaded!

WunderBlogs® & News

Nearby

Air Quality

  Air Quality AQ Index Pollutant
Not available.

Snow Depth

Station Depth Elevation

Earthquake Activity

City Distance Mag. Time & Date
Minimum magnitude displayed is 2.5.

Coastal Water Temperatures

Place Temperature

Nearby Weather Stations